Time;durP1;ratioP1;P1;durP2;ratioP2;P2;SDS_P1;SDS_P2;PMS_P1;PMS_P2;Temp;Humidity;BMP_temperature;BMP_pressure;BME280_temperature;BME280_humidity;BME280_pressure;Samples;Min_cycle;Max_cycle;Signal;HPM_P1;HPM_P2
2022/06/02 00:00:09;;;;;;;1.40;0.90;;;;;;;16.85;46.05;99679.19;341862;29;2511;-81
2022/06/02 00:00:24;;;;;;;2.10;1.00;;;;;;;16.84;46.00;99682.75;339669;29;1051;-80
2022/06/02 00:00:46;;;;;;;1.42;1.00;;;;;;;16.83;45.82;99683.66;339345;29;1322;-80
2022/06/02 00:01:11;;;;;;;2.40;1.00;;;;;;;16.85;45.45;99683.59;339354;29;1104;-80
2022/06/02 00:01:29;;;;;;;1.52;0.88;;;;;;;16.84;45.50;99677.50;338863;29;1080;-80
2022/06/02 00:01:57;;;;;;;1.42;0.73;;;;;;;16.86;45.84;99685.25;338194;29;854;-80
2022/06/02 00:02:28;;;;;;;2.42;0.90;;;;;;;16.86;45.80;99680.00;339389;29;1065;-80
2022/06/02 00:03:02;;;;;;;2.72;1.02;;;;;;;16.86;45.61;99680.00;339306;29;1133;-80
2022/06/02 00:03:25;;;;;;;1.70;1.05;;;;;;;16.86;45.41;99686.13;339643;29;864;-80
2022/06/02 00:03:46;;;;;;;1.60;0.90;;;;;;;16.86;45.29;99685.25;339302;29;1345;-80
2022/06/02 00:04:23;;;;;;;2.53;1.13;;;;;;;16.85;44.82;99683.59;337696;29;975;-80
2022/06/02 00:04:44;;;;;;;1.25;0.90;;;;;;;16.84;45.03;99687.13;337834;29;1075;-80
2022/06/02 00:05:19;;;;;;;1.77;1.00;;;;;;;16.82;44.94;99676.75;337968;29;1010;-80
2022/06/02 00:06:05;;;;;;;3.78;1.30;;;;;;;16.83;45.23;99675.78;339087;29;1990;-81
2022/06/02 00:06:37;;;;;;;4.05;1.20;;;;;;;16.84;45.90;99681.88;340645;29;1108;-80
2022/06/02 00:06:57;;;;;;;2.60;1.10;;;;;;;16.83;46.53;99680.22;341001;29;1912;-80
2022/06/02 00:07:24;;;;;;;3.22;1.10;;;;;;;16.84;47.21;99684.50;341901;29;1122;-80
2022/06/02 00:07:58;;;;;;;2.13;1.15;;;;;;;16.84;47.40;99681.88;342046;29;908;-80
2022/06/02 00:08:23;;;;;;;2.10;1.10;;;;;;;16.84;47.13;99682.75;341996;28;1167;-80
2022/06/02 00:09:07;;;;;;;2.20;1.10;;;;;;;16.84;47.62;99682.75;342985;28;1035;-80
2022/06/02 00:09:44;;;;;;;1.80;1.00;;;;;;;16.85;47.34;99691.47;337362;29;1075;-80
2022/06/02 00:10:01;;;;;;;3.35;1.10;;;;;;;16.87;47.14;99689.59;336636;29;1209;-80
2022/06/02 00:10:19;;;;;;;2.60;1.00;;;;;;;16.88;46.96;99688.66;335549;29;1096;-80
2022/06/02 00:10:55;;;;;;;1.80;1.08;;;;;;;16.89;46.74;99692.97;334881;29;1243;-80
2022/06/02 00:11:22;;;;;;;1.45;1.10;;;;;;;16.89;46.49;99688.56;336731;29;1611;-81
2022/06/02 00:11:56;;;;;;;1.63;1.00;;;;;;;16.85;47.84;99694.09;338047;29;1284;-80
2022/06/02 00:12:13;;;;;;;1.70;1.10;;;;;;;16.83;48.24;99688.94;337824;29;1018;-80
2022/06/02 00:12:51;;;;;;;3.13;1.10;;;;;;;16.84;48.44;99695.00;338000;29;1198;-80
2022/06/02 00:13:12;;;;;;;1.95;1.10;;;;;;;16.81;49.02;99693.41;339664;29;977;-80
2022/06/02 00:13:34;;;;;;;1.77;1.10;;;;;;;16.76;49.98;99685.78;340356;29;1166;-80
2022/06/02 00:14:02;;;;;;;2.90;1.30;;;;;;;16.77;49.75;99690.09;340669;29;1129;-80
2022/06/02 00:14:43;;;;;;;1.70;1.13;;;;;;;16.75;48.81;99691.13;340473;29;1072;-80
2022/06/02 00:15:23;;;;;;;4.47;1.30;;;;;;;16.76;48.18;99691.03;340758;29;1114;-80
2022/06/02 00:15:45;;;;;;;1.50;1.00;;;;;;;16.80;48.29;99690.84;340719;29;1742;-80
2022/06/02 00:16:06;;;;;;;2.15;1.10;;;;;;;16.81;47.72;99688.16;341153;29;1068;-80
2022/06/02 00:16:27;;;;;;;1.58;1.10;;;;;;;16.83;47.16;99685.47;341708;29;1021;-80
2022/06/02 00:17:07;;;;;;;1.63;1.02;;;;;;;16.81;47.61;99688.16;339650;29;880;-80
2022/06/02 00:17:37;;;;;;;1.63;1.20;;;;;;;16.81;47.68;99697.78;339844;29;1170;-81
2022/06/02 00:18:03;;;;;;;3.90;1.20;;;;;;;16.77;48.50;99687.47;339457;29;861;-80
2022/06/02 00:18:35;;;;;;;2.85;1.20;;;;;;;16.78;48.62;99694.41;339706;29;1610;-80
2022/06/02 00:18:59;;;;;;;3.22;1.13;;;;;;;16.79;48.33;99690.00;340565;29;1128;-80
2022/06/02 00:19:22;;;;;;;1.30;0.90;;;;;;;16.78;48.07;99691.78;340600;29;1145;-80
2022/06/02 00:20:11;;;;;;;2.83;1.00;;;;;;;16.76;48.02;99693.66;340470;29;1222;-81
2022/06/02 00:20:34;;;;;;;2.55;1.40;;;;;;;16.75;47.70;99688.50;336810;29;1798;-80
2022/06/02 00:20:59;;;;;;;2.10;1.00;;;;;;;16.73;48.17;99685.94;340421;29;1076;-80
2022/06/02 00:21:14;;;;;;;2.90;1.10;;;;;;;16.72;48.26;99686.03;341595;29;1743;-81
2022/06/02 00:21:31;;;;;;;2.40;1.17;;;;;;;16.71;47.92;99693.06;341474;29;1100;-80
2022/06/02 00:21:55;;;;;;;2.60;1.10;;;;;;;16.70;47.83;99685.28;341744;29;1054;-80
2022/06/02 00:22:20;;;;;;;4.40;1.15;;;;;;;16.70;48.04;99686.13;342050;29;852;-80
2022/06/02 00:22:50;;;;;;;2.80;1.08;;;;;;;16.71;48.41;99690.44;341883;29;1041;-80
2022/06/02 00:23:39;;;;;;;2.78;1.13;;;;;;;16.70;48.24;99688.75;340330;29;1072;-80
2022/06/02 00:23:59;;;;;;;1.48;0.93;;;;;;;16.69;48.79;99684.44;341487;29;1085;-81
2022/06/02 00:24:22;;;;;;;2.38;1.05;;;;;;;16.67;48.44;99686.31;340888;29;869;-80
2022/06/02 00:25:00;;;;;;;2.30;1.00;;;;;;;16.69;48.64;99694.94;340746;29;1146;-80
2022/06/02 00:25:34;;;;;;;4.50;1.30;;;;;;;16.63;48.48;99691.81;340060;29;1687;-80
2022/06/02 00:25:49;;;;;;;2.72;1.15;;;;;;;16.61;47.96;99691.91;340635;29;1178;-80
2022/06/02 00:26:40;;;;;;;2.53;1.20;;;;;;;16.61;48.00;99689.28;341551;29;1851;-80
2022/06/02 00:27:09;;;;;;;3.17;1.20;;;;;;;16.55;48.44;99692.25;340447;29;958;-80
2022/06/02 00:27:40;;;;;;;2.42;1.20;;;;;;;16.53;48.73;99694.13;340849;29;1252;-80
2022/06/02 00:28:07;;;;;;;2.72;1.17;;;;;;;16.52;48.88;99697.66;342167;29;861;-80
2022/06/02 00:28:29;;;;;;;2.80;1.30;;;;;;;16.52;48.51;99697.66;341915;29;984;-80
2022/06/02 00:28:46;;;;;;;2.08;1.02;;;;;;;16.50;48.71;99694.28;341668;29;1028;-81
2022/06/02 00:29:20;;;;;;;2.67;1.10;;;;;;;16.45;49.86;99693.72;342008;29;876;-81
2022/06/02 00:29:44;;;;;;;4.50;1.40;;;;;;;16.43;50.05;99699.03;341342;29;909;-81
2022/06/02 00:29:59;;;;;;;2.75;1.20;;;;;;;16.45;49.51;99701.56;341108;29;1247;-80
2022/06/02 00:30:22;;;;;;;2.38;1.00;;;;;;;16.45;49.14;99697.16;341117;29;1064;-80
2022/06/02 00:31:12;;;;;;;1.92;0.90;;;;;;;16.46;48.83;99703.25;341888;29;983;-80
2022/06/02 00:31:39;;;;;;;2.15;1.17;;;;;;;16.42;50.85;99696.50;339184;29;1129;-80
2022/06/02 00:32:19;;;;;;;2.40;1.20;;;;;;;16.33;51.14;99692.59;339179;29;1154;-80
2022/06/02 00:32:44;;;;;;;2.50;1.20;;;;;;;16.32;50.37;99697.03;341570;29;1776;-80
2022/06/02 00:33:23;;;;;;;2.10;1.20;;;;;;;16.31;50.15;99690.06;340926;29;1037;-80
2022/06/02 00:33:57;;;;;;;3.25;1.05;;;;;;;16.31;49.55;99690.06;339674;29;1343;-81
2022/06/02 00:34:29;;;;;;;2.42;1.15;;;;;;;16.29;51.36;99694.56;341802;29;1145;-79
2022/06/02 00:35:03;;;;;;;3.00;1.20;;;;;;;16.27;51.41;99698.19;339713;29;872;-79
2022/06/02 00:35:40;;;;;;;2.08;1.25;;;;;;;16.22;51.90;99693.22;340676;29;1044;-79
2022/06/02 00:35:57;;;;;;;1.80;1.20;;;;;;;16.20;51.55;99697.69;339683;29;988;-78
2022/06/02 00:36:31;;;;;;;1.73;1.17;;;;;;;16.21;50.58;99699.38;339373;29;1141;-81
2022/06/02 00:37:07;;;;;;;1.63;1.30;;;;;;;16.20;49.76;99695.09;340790;29;1421;-80
2022/06/02 00:37:53;;;;;;;2.30;1.05;;;;;;;16.22;49.76;99701.09;341181;29;849;-80
2022/06/02 00:38:18;;;;;;;2.50;1.10;;;;;;;16.24;50.13;99699.22;340636;29;1120;-82
2022/06/02 00:38:36;;;;;;;1.95;1.20;;;;;;;16.21;50.00;99702.00;341793;29;1716;-81
2022/06/02 00:38:49;;;;;;;1.65;1.10;;;;;;;16.22;49.85;99695.84;341135;29;1202;-81
2022/06/02 00:39:03;;;;;;;1.52;1.00;;;;;;;16.21;49.66;99702.00;340349;29;989;-81
2022/06/02 00:39:18;;;;;;;1.58;1.10;;;;;;;16.20;49.51;99705.56;338822;29;1084;-79
2022/06/02 00:39:33;;;;;;;2.15;1.10;;;;;;;16.21;49.56;99703.78;339248;29;1726;-81
2022/06/02 00:39:47;;;;;;;1.95;1.10;;;;;;;16.19;49.50;99706.47;339740;29;1708;-81
2022/06/02 00:40:01;;;;;;;1.48;1.00;;;;;;;16.20;49.74;99702.94;340430;29;1197;-81
2022/06/02 00:40:14;;;;;;;1.40;1.00;;;;;;;16.19;49.75;99701.25;339792;29;1030;-81
2022/06/02 00:40:27;;;;;;;1.83;1.20;;;;;;;16.20;49.77;99702.06;339222;29;1048;-80
2022/06/02 00:40:39;;;;;;;2.33;1.40;;;;;;;16.18;49.91;99699.56;339808;29;767;-80
2022/06/02 00:40:52;;;;;;;2.03;1.38;;;;;;;16.18;49.63;99704.81;340379;29;882;-81
2022/06/02 00:41:15;;;;;;;1.67;1.20;;;;;;;16.15;50.06;99697.94;340714;29;1115;-81
2022/06/02 00:41:49;;;;;;;3.03;1.17;;;;;;;16.13;50.35;99696.34;342002;29;1119;-81
2022/06/02 00:42:06;;;;;;;2.05;1.20;;;;;;;16.10;51.25;99704.38;340978;29;992;-81
2022/06/02 00:42:24;;;;;;;1.60;1.30;;;;;;;16.09;50.43;99705.28;340600;29;1166;-81
2022/06/02 00:42:52;;;;;;;1.30;1.20;;;;;;;16.10;49.88;99701.75;340656;29;961;-81
2022/06/02 00:43:21;;;;;;;1.47;1.00;;;;;;;16.10;50.39;99707.84;342426;29;861;-81
2022/06/02 00:43:59;;;;;;;2.53;1.05;;;;;;;16.11;50.31;99713.94;341017;29;1205;-81
2022/06/02 00:44:40;;;;;;;1.20;1.10;;;;;;;16.10;50.02;99712.25;337814;29;1001;-81
2022/06/02 00:45:05;;;;;;;2.67;1.23;;;;;;;16.11;49.27;99713.94;336883;29;1249;-81
2022/06/02 00:45:19;;;;;;;1.55;1.08;;;;;;;16.11;49.04;99708.69;335659;29;881;-81
2022/06/02 00:45:31;;;;;;;2.03;1.30;;;;;;;16.10;48.97;99714.88;334978;29;1200;-81
2022/06/02 00:45:55;;;;;;;2.65;1.33;;;;;;;16.08;49.14;99714.09;334080;29;1050;-81
2022/06/02 00:46:23;;;;;;;2.08;1.30;;;;;;;16.06;48.98;99711.56;339516;29;1226;-81
2022/06/02 00:46:35;;;;;;;1.98;1.20;;;;;;;16.07;49.15;99718.47;339607;29;860;-81
2022/06/02 00:47:14;;;;;;;2.13;1.30;;;;;;;16.06;49.08;99715.97;338061;29;1169;-81
2022/06/02 00:47:50;;;;;;;2.40;1.20;;;;;;;16.06;49.89;99721.22;337929;29;1817;-81
2022/06/02 00:48:06;;;;;;;4.88;1.20;;;;;;;16.08;49.67;99716.72;333438;29;888;-81
2022/06/02 00:48:21;;;;;;;3.42;1.30;;;;;;;16.07;49.64;99715.88;337491;29;1093;-81
2022/06/02 00:49:07;;;;;;;2.25;1.30;;;;;;;16.10;51.44;99727.97;339362;29;1238;-81
2022/06/02 00:49:33;;;;;;;1.58;1.30;;;;;;;16.02;52.19;99719.66;341874;29;1065;-81
2022/06/02 00:50:00;;;;;;;2.72;1.20;;;;;;;16.01;51.80;99724.06;343680;28;859;-81
2022/06/02 00:50:20;;;;;;;3.45;1.45;;;;;;;16.01;52.06;99712.72;343223;28;1049;-81
2022/06/02 00:50:37;;;;;;;3.35;1.50;;;;;;;15.98;52.32;99714.59;341407;29;1544;-85
2022/06/02 00:51:11;;;;;;;2.35;1.30;;;;;;;15.96;52.27;99716.44;342207;29;854;-82
2022/06/02 00:51:45;;;;;;;1.38;1.27;;;;;;;16.00;51.45;99717.13;339757;29;868;-81
2022/06/02 00:52:02;;;;;;;1.75;1.20;;;;;;;16.00;51.04;99713.66;340558;29;1076;-81
2022/06/02 00:52:14;;;;;;;2.05;1.20;;;;;;;16.01;51.08;99716.19;340573;29;1035;-81
2022/06/02 00:52:30;;;;;;;2.05;1.20;;;;;;;16.03;51.14;99721.38;341176;29;1233;-81
2022/06/02 00:52:51;;;;;;;1.42;1.10;;;;;;;16.04;51.04;99723.06;340860;29;881;-81
2022/06/02 00:53:28;;;;;;;1.88;1.20;;;;;;;16.06;50.47;99721.22;340778;29;1097;-81
2022/06/02 00:53:42;;;;;;;2.25;1.30;;;;;;;16.02;49.82;99717.03;340745;29;877;-81
2022/06/02 00:57:30;;;;;;;2.38;1.30;;;;;;;15.64;51.25;99733.84;341165;29;1883;-81
2022/06/02 00:58:09;;;;;;;1.90;1.30;;;;;;;15.63;51.20;99723.44;340404;29;953;-81
2022/06/02 00:58:55;;;;;;;2.95;1.40;;;;;;;15.63;51.38;99728.69;339670;29;887;-81
2022/06/02 00:59:36;;;;;;;4.15;1.30;;;;;;;15.56;51.62;99734.25;337989;29;1263;-81
2022/06/02 01:00:12;;;;;;;4.47;1.48;;;;;;;15.55;51.68;99732.56;339301;29;1163;-81
2022/06/02 01:00:33;;;;;;;2.83;1.20;;;;;;;15.56;51.42;99723.78;339250;29;1083;-81
2022/06/02 01:00:51;;;;;;;2.90;1.38;;;;;;;15.58;51.80;99736.81;339625;29;915;-81
2022/06/02 01:01:12;;;;;;;2.17;1.45;;;;;;;15.54;52.79;99732.66;339307;29;1075;-81
2022/06/02 01:01:29;;;;;;;2.40;1.40;;;;;;;15.52;52.96;99732.72;340466;29;1179;-81
2022/06/02 01:01:41;;;;;;;2.42;1.30;;;;;;;15.52;52.94;99730.09;339244;29;1188;-81
2022/06/02 01:01:55;;;;;;;2.17;1.27;;;;;;;15.51;53.05;99736.28;339479;29;1034;-81
2022/06/02 01:02:07;;;;;;;2.22;1.30;;;;;;;15.49;53.20;99732.91;338467;29;767;-81
2022/06/02 01:02:22;;;;;;;2.10;1.30;;;;;;;15.50;53.33;99731.94;337838;29;1068;-81
2022/06/02 01:02:57;;;;;;;2.33;1.38;;;;;;;15.49;54.04;99730.28;338353;29;1264;-81
2022/06/02 01:03:15;;;;;;;3.50;1.50;;;;;;;15.46;54.08;99730.41;336473;29;1064;-80
2022/06/02 01:03:38;;;;;;;3.40;1.50;;;;;;;15.45;54.11;99730.47;337245;29;1100;-81
2022/06/02 01:03:54;;;;;;;3.22;1.60;;;;;;;15.47;53.31;99723.41;339499;29;1040;-81
2022/06/02 01:04:14;;;;;;;2.42;1.30;;;;;;;15.48;53.05;99725.94;337372;29;1099;-80
2022/06/02 01:04:26;;;;;;;2.40;1.25;;;;;;;15.51;53.29;99728.41;339273;29;1172;-81
2022/06/02 01:04:42;;;;;;;2.65;1.30;;;;;;;15.47;53.75;99724.22;339408;29;1034;-81
2022/06/02 01:05:00;;;;;;;2.15;1.40;;;;;;;15.48;53.49;99731.19;338188;29;1077;-81
2022/06/02 01:05:15;;;;;;;1.70;1.40;;;;;;;15.46;53.15;99726.97;338470;29;1223;-82
2022/06/02 01:05:58;;;;;;;1.90;1.30;;;;;;;15.50;53.64;99729.31;339424;29;922;-81
2022/06/02 01:06:18;;;;;;;1.70;1.17;;;;;;;15.56;52.61;99718.53;336577;29;1195;-80
2022/06/02 01:06:30;;;;;;;1.27;1.10;;;;;;;15.57;52.48;99725.47;336960;29;1692;-81
2022/06/02 01:07:27;;;;;;;1.50;1.13;;;;;;;15.58;52.30;99715.84;337611;29;1091;-81
2022/06/02 01:08:02;;;;;;;3.17;1.15;;;;;;;15.58;52.71;99724.53;338976;29;1185;-81
2022/06/02 01:08:40;;;;;;;2.85;1.48;;;;;;;15.56;53.31;99723.78;340504;29;1036;-82
2022/06/02 01:09:30;;;;;;;1.98;1.20;;;;;;;15.55;53.09;99722.09;335247;29;1307;-81
2022/06/02 01:09:49;;;;;;;2.40;1.20;;;;;;;15.55;53.15;99722.09;337678;29;1087;-81
2022/06/02 01:10:18;;;;;;;1.85;1.38;;;;;;;15.55;52.83;99715.97;338073;29;877;-82
2022/06/02 01:10:44;;;;;;;2.75;1.30;;;;;;;15.55;53.13;99722.09;337712;29;1012;-82
2022/06/02 01:11:16;;;;;;;2.50;1.40;;;;;;;15.57;53.67;99722.84;338025;29;933;-81
2022/06/02 01:11:47;;;;;;;2.28;1.20;;;;;;;15.56;53.48;99723.78;335205;29;1175;-82
2022/06/02 01:12:39;;;;;;;1.67;1.20;;;;;;;15.58;52.73;99716.69;337350;29;964;-82
2022/06/02 01:13:15;;;;;;;1.50;1.25;;;;;;;15.57;52.95;99719.38;339415;29;1056;-82
2022/06/02 01:14:01;;;;;;;2.22;1.50;;;;;;;15.57;53.24;99727.22;340597;29;1124;-82
2022/06/02 01:14:30;;;;;;;2.88;1.30;;;;;;;15.54;53.98;99724.78;338216;29;873;-82
2022/06/02 01:15:10;;;;;;;2.53;1.38;;;;;;;15.53;54.21;99731.81;336602;29;1319;-82
2022/06/02 01:15:54;;;;;;;2.50;1.38;;;;;;;15.53;53.67;99728.31;340639;29;1297;-82
2022/06/02 01:16:39;;;;;;;4.22;1.30;;;;;;;15.50;54.03;99725.88;337587;29;1144;-82
2022/06/02 01:16:54;;;;;;;1.92;1.17;;;;;;;15.53;53.51;99721.31;340708;29;1035;-82
2022/06/02 01:17:21;;;;;;;2.70;1.15;;;;;;;15.50;53.48;99724.09;340632;29;1044;-82
2022/06/02 01:18:05;;;;;;;2.92;1.17;;;;;;;15.50;54.07;99728.50;339328;29;984;-82
2022/06/02 01:18:36;;;;;;;3.55;1.50;;;;;;;15.49;53.98;99721.53;339590;29;875;-82
2022/06/02 01:19:09;;;;;;;3.72;1.20;;;;;;;15.43;54.71;99727.94;340692;29;879;-81
2022/06/02 01:19:23;;;;;;;2.00;1.40;;;;;;;15.44;54.26;99729.66;339125;29;1727;-86
2022/06/02 01:19:50;;;;;;;2.28;1.30;;;;;;;15.44;53.96;99719.16;339605;29;1133;-79
2022/06/02 01:20:26;;;;;;;2.50;1.33;;;;;;;15.44;54.11;99728.81;339555;29;1073;-80
2022/06/02 01:21:35;;;;;;;3.55;1.40;;;;;;;15.41;54.52;99729.78;337374;29;1170;-80
2022/06/02 01:22:10;;;;;;;2.88;1.27;;;;;;;15.40;54.58;99727.28;339650;29;1047;-81
2022/06/02 01:23:00;;;;;;;2.13;1.30;;;;;;;15.40;55.37;99728.09;335925;29;1250;-82
2022/06/02 01:23:32;;;;;;;1.95;1.33;;;;;;;15.38;55.44;99732.59;340066;29;2975;-80
2022/06/02 01:24:02;;;;;;;2.30;1.50;;;;;;;15.34;56.21;99731.03;340425;29;1207;-81
2022/06/02 01:24:44;;;;;;;2.47;1.30;;;;;;;15.35;55.10;99730.09;341198;29;1221;-81
2022/06/02 01:25:36;;;;;;;3.63;1.17;;;;;;;15.40;54.34;99738.59;339566;29;1291;-80
2022/06/02 01:25:51;;;;;;;2.05;1.33;;;;;;;15.39;54.25;99731.66;340088;29;1852;-80
2022/06/02 01:26:42;;;;;;;2.15;1.40;;;;;;;15.35;54.09;99736.22;340773;29;1712;-81
2022/06/02 01:27:27;;;;;;;2.75;1.40;;;;;;;15.35;55.06;99728.34;337155;29;1077;-82
2022/06/02 01:27:55;;;;;;;2.50;1.50;;;;;;;15.34;55.12;99733.66;337706;29;1722;-81
2022/06/02 01:28:45;;;;;;;2.72;1.60;;;;;;;15.34;54.92;99728.44;338752;29;1037;-80
2022/06/02 01:29:25;;;;;;;2.47;1.70;;;;;;;15.31;56.55;99731.19;338544;29;1578;-81
2022/06/02 01:29:49;;;;;;;2.72;1.50;;;;;;;15.30;56.20;99726.88;338298;29;1914;-82
2022/06/02 01:30:12;;;;;;;3.78;1.40;;;;;;;15.28;56.10;99736.59;337515;29;1070;-81
2022/06/02 01:30:43;;;;;;;2.58;1.35;;;;;;;15.23;56.25;99735.97;337078;29;1813;-80
2022/06/02 01:31:40;;;;;;;2.60;1.50;;;;;;;15.22;56.30;99729.06;335997;29;1067;-81
2022/06/02 01:32:07;;;;;;;2.78;1.65;;;;;;;15.23;56.30;99725.50;331990;29;1349;-81
2022/06/02 01:32:31;;;;;;;1.75;1.48;;;;;;;15.25;55.67;99734.13;333272;29;1199;-81
2022/06/02 01:33:12;;;;;;;2.40;1.50;;;;;;;15.21;56.67;99737.81;335494;29;1839;-81
2022/06/02 01:33:24;;;;;;;2.40;1.40;;;;;;;15.24;55.97;99735.06;341014;28;1608;-81
2022/06/02 01:34:11;;;;;;;2.75;1.42;;;;;;;15.25;55.78;99739.34;340253;29;1471;-81
2022/06/02 01:35:00;;;;;;;3.08;1.60;;;;;;;15.28;55.15;99734.81;339166;29;1623;-81
2022/06/02 01:35:39;;;;;;;2.85;1.33;;;;;;;15.28;54.54;99734.81;339690;29;1678;-81
2022/06/02 01:35:51;;;;;;;2.30;1.40;;;;;;;15.29;54.33;99727.81;340258;29;874;-81
2022/06/02 01:36:28;;;;;;;2.28;1.45;;;;;;;15.29;54.06;99730.41;339761;29;1163;-81
2022/06/02 01:37:10;;;;;;;3.42;1.60;;;;;;;15.28;54.24;99739.22;341490;28;1776;-81
2022/06/02 01:38:04;;;;;;;2.55;1.40;;;;;;;15.26;54.38;99735.81;340322;29;1363;-82
2022/06/02 01:38:25;;;;;;;1.73;1.27;;;;;;;15.22;54.37;99734.28;335084;29;1297;-81
2022/06/02 01:38:48;;;;;;;2.90;1.42;;;;;;;15.18;54.59;99729.19;339401;29;2178;-81
2022/06/02 01:39:12;;;;;;;2.17;1.50;;;;;;;15.16;54.67;99725.81;338674;29;1191;-81
2022/06/02 01:39:29;;;;;;;2.33;1.40;;;;;;;15.15;55.09;99723.25;337683;29;1317;-81
2022/06/02 01:39:47;;;;;;;2.15;1.30;;;;;;;15.14;54.89;99732.91;337377;29;1296;-81
2022/06/02 01:39:59;;;;;;;1.65;1.27;;;;;;;15.14;54.94;99732.06;337348;29;1118;-81
2022/06/02 01:40:37;;;;;;;1.33;1.23;;;;;;;15.13;54.54;99731.22;337870;29;1005;-81
2022/06/02 01:41:09;;;;;;;3.03;1.58;;;;;;;15.11;54.16;99725.22;339139;29;880;-81
2022/06/02 01:41:44;;;;;;;3.10;1.35;;;;;;;15.10;54.34;99731.34;340211;29;901;-81
2022/06/02 01:41:58;;;;;;;2.00;1.42;;;;;;;15.09;54.23;99727.06;339781;29;1093;-81
2022/06/02 01:42:32;;;;;;;2.85;1.38;;;;;;;15.09;54.32;99729.69;339072;29;1419;-81
2022/06/02 01:43:02;;;;;;;3.03;1.42;;;;;;;15.09;55.13;99734.91;340405;29;1864;-81
2022/06/02 01:43:22;;;;;;;2.00;1.40;;;;;;;15.08;55.80;99733.19;340094;29;1167;-81
2022/06/02 01:44:01;;;;;;;2.38;1.50;;;;;;;15.07;55.24;99736.75;341356;29;1254;-81
2022/06/02 01:44:18;;;;;;;3.55;1.35;;;;;;;15.06;55.06;99734.22;340980;29;1235;-81
2022/06/02 01:45:00;;;;;;;2.33;1.30;;;;;;;15.02;56.12;99730.88;341308;29;1160;-81
2022/06/02 01:45:21;;;;;;;2.08;1.60;;;;;;;15.02;55.99;99733.50;341637;29;1035;-81
2022/06/02 01:46:02;;;;;;;2.35;1.48;;;;;;;15.02;55.66;99737.91;340675;29;1222;-81
2022/06/02 01:46:23;;;;;;;2.85;1.65;;;;;;;15.06;55.36;99736.81;341307;29;865;-81
2022/06/02 01:46:42;;;;;;;2.85;1.60;;;;;;;15.02;55.29;99728.28;340889;29;871;-81
2022/06/02 01:47:09;;;;;;;1.85;1.35;;;;;;;15.02;55.50;99738.75;339777;29;1105;-81
2022/06/02 01:47:40;;;;;;;2.45;1.50;;;;;;;15.00;56.35;99740.59;338424;29;1236;-81
2022/06/02 01:48:26;;;;;;;2.08;1.55;;;;;;;14.98;57.18;99742.44;338283;29;1425;-81
2022/06/02 01:49:20;;;;;;;2.13;1.48;;;;;;;15.02;55.92;99735.28;334977;29;1239;-81
2022/06/02 01:49:49;;;;;;;2.40;1.50;;;;;;;15.02;55.84;99732.66;333408;29;1187;-81
2022/06/02 01:50:07;;;;;;;2.28;1.50;;;;;;;15.04;57.07;99743.91;335945;29;1419;-81
2022/06/02 01:50:41;;;;;;;3.40;1.50;;;;;;;15.01;57.23;99731.81;335050;29;1124;-81
2022/06/02 01:51:07;;;;;;;2.72;1.52;;;;;;;15.05;56.39;99732.50;337729;29;1058;-81
2022/06/02 01:51:47;;;;;;;2.05;1.45;;;;;;;15.07;55.78;99742.00;336520;29;996;-81
2022/06/02 01:52:01;;;;;;;3.80;1.40;;;;;;;15.04;56.08;99736.91;336729;29;1110;-81
2022/06/02 01:52:28;;;;;;;3.95;1.60;;;;;;;15.02;57.06;99733.50;337857;29;1082;-81
2022/06/02 01:53:07;;;;;;;2.75;1.55;;;;;;;15.01;56.96;99738.81;339448;29;867;-81
2022/06/02 01:53:48;;;;;;;2.17;1.50;;;;;;;14.96;57.80;99739.06;340656;29;966;-82
2022/06/02 01:54:21;;;;;;;3.92;1.60;;;;;;;14.96;56.88;99739.88;341121;29;1019;-81
2022/06/02 01:55:11;;;;;;;1.60;1.25;;;;;;;15.00;56.05;99742.38;341752;29;1200;-81
2022/06/02 01:56:07;;;;;;;3.28;1.48;;;;;;;15.00;57.49;99735.34;340369;29;964;-81
2022/06/02 01:56:24;;;;;;;2.30;1.60;;;;;;;14.95;57.11;99732.97;335082;29;1083;-81
2022/06/02 01:57:01;;;;;;;2.53;1.50;;;;;;;14.94;57.38;99741.72;335157;29;1188;-81
2022/06/02 01:57:15;;;;;;;3.05;1.60;;;;;;;14.90;57.31;99734.13;337605;29;1066;-81
2022/06/02 01:57:44;;;;;;;1.73;1.50;;;;;;;14.90;56.43;99734.13;337998;29;1040;-81
2022/06/02 01:58:17;;;;;;;2.10;1.40;;;;;;;14.92;56.65;99738.34;338350;29;862;-81
2022/06/02 01:58:38;;;;;;;2.78;1.33;;;;;;;14.95;56.13;99742.56;337214;29;1236;-82
2022/06/02 01:59:18;;;;;;;3.10;1.50;;;;;;;14.94;56.21;99746.97;339310;29;1180;-81
2022/06/02 01:59:43;;;;;;;3.45;1.40;;;;;;;14.96;56.81;99744.28;340384;29;1209;-82
2022/06/02 02:00:15;;;;;;;2.75;1.50;;;;;;;14.97;58.26;99740.75;339595;29;1086;-81
2022/06/02 02:00:31;;;;;;;1.83;1.60;;;;;;;14.98;58.08;99740.66;339775;29;1177;-81
2022/06/02 02:00:51;;;;;;;2.20;1.60;;;;;;;14.97;57.91;99741.59;340380;29;1239;-82
2022/06/02 02:01:27;;;;;;;2.72;1.60;;;;;;;14.98;57.63;99747.66;340961;29;870;-81
2022/06/02 02:01:58;;;;;;;2.10;1.40;;;;;;;14.98;56.96;99739.81;339431;29;973;-81
2022/06/02 02:02:10;;;;;;;3.20;1.50;;;;;;;14.98;57.13;99743.28;340537;29;1019;-82
2022/06/02 02:02:35;;;;;;;3.17;1.48;;;;;;;14.93;58.15;99749.66;339571;29;786;-81
2022/06/02 02:02:53;;;;;;;3.75;1.50;;;;;;;14.94;57.33;99740.91;340264;29;1040;-81
2022/06/02 02:03:21;;;;;;;2.50;1.55;;;;;;;14.92;58.56;99748.81;339217;29;1072;-81
2022/06/02 02:03:46;;;;;;;3.92;1.60;;;;;;;14.94;58.51;99743.50;339315;29;1918;-82
2022/06/02 02:04:13;;;;;;;2.15;1.42;;;;;;;14.94;57.86;99746.13;340450;29;1116;-81
2022/06/02 02:04:32;;;;;;;2.72;1.50;;;;;;;14.96;57.21;99742.50;340055;29;1176;-81
2022/06/02 02:04:59;;;;;;;2.75;1.40;;;;;;;14.96;56.99;99744.28;340685;29;1054;-82
2022/06/02 02:05:29;;;;;;;1.40;1.20;;;;;;;14.98;56.63;99747.66;341863;29;1030;-82
2022/06/02 02:06:06;;;;;;;1.38;1.17;;;;;;;14.98;56.51;99742.44;341620;29;992;-81
2022/06/02 02:06:24;;;;;;;2.28;1.50;;;;;;;14.96;56.17;99739.06;341817;29;1047;-81
2022/06/02 02:06:51;;;;;;;1.97;1.40;;;;;;;14.96;55.86;99749.53;342200;28;1055;-81
2022/06/02 02:08:08;;;;;;;2.55;1.35;;;;;;;14.93;55.80;99744.41;342031;28;1145;-81
2022/06/02 02:08:26;;;;;;;2.90;1.60;;;;;;;14.85;56.13;99751.81;339195;29;1279;-81
2022/06/02 02:09:01;;;;;;;3.00;1.55;;;;;;;14.84;56.13;99748.34;339388;29;942;-82
2022/06/02 02:09:50;;;;;;;1.92;1.30;;;;;;;14.81;56.10;99755.50;339280;29;994;-81
2022/06/02 02:10:15;;;;;;;2.10;1.50;;;;;;;14.75;56.37;99752.25;335479;29;948;-81
2022/06/02 02:10:31;;;;;;;2.80;1.60;;;;;;;14.75;56.51;99751.44;335209;29;1162;-81
2022/06/02 02:11:04;;;;;;;5.18;1.60;;;;;;;14.74;56.41;99747.94;335383;29;1071;-81
2022/06/02 02:11:34;;;;;;;3.28;1.40;;;;;;;14.74;55.84;99755.78;335144;29;1061;-81
2022/06/02 02:11:52;;;;;;;1.40;1.30;;;;;;;14.70;55.76;99754.25;333999;29;1116;-82
2022/06/02 02:12:12;;;;;;;1.50;1.20;;;;;;;14.70;55.80;99754.25;334677;29;1046;-81
2022/06/02 02:12:37;;;;;;;1.30;1.20;;;;;;;14.67;55.75;99754.41;334374;29;870;-81
2022/06/02 02:13:07;;;;;;;2.63;1.50;;;;;;;14.65;56.06;99753.63;332649;29;1039;-81
2022/06/02 02:14:01;;;;;;;2.17;1.50;;;;;;;14.58;57.89;99754.81;331716;29;989;-82
2022/06/02 02:14:34;;;;;;;2.92;1.50;;;;;;;14.60;57.22;99755.59;332736;29;1089;-82
2022/06/02 02:15:18;;;;;;;2.33;1.40;;;;;;;14.63;56.82;99751.97;338510;29;1255;-81
2022/06/02 02:15:56;;;;;;;1.63;1.40;;;;;;;14.65;57.54;99756.25;338584;29;1169;-81
2022/06/02 02:16:26;;;;;;;3.83;1.67;;;;;;;14.69;58.42;99751.69;339228;29;1031;-81
2022/06/02 02:16:59;;;;;;;2.17;1.55;;;;;;;14.67;58.18;99749.16;338689;29;1066;-81
2022/06/02 02:17:22;;;;;;;2.28;1.58;;;;;;;14.68;58.24;99756.09;339215;29;1146;-82
2022/06/02 02:18:12;;;;;;;2.50;1.70;;;;;;;14.70;58.44;99754.25;340836;29;1061;-80
2022/06/02 02:18:45;;;;;;;3.25;1.60;;;;;;;14.69;56.99;99757.78;340490;29;879;-80
2022/06/02 02:18:57;;;;;;;2.13;1.70;;;;;;;14.70;57.47;99754.25;340572;29;884;-80
2022/06/02 02:19:30;;;;;;;1.90;1.63;;;;;;;14.72;57.32;99757.63;339849;29;1191;-81
2022/06/02 02:19:54;;;;;;;3.25;1.75;;;;;;;14.74;57.32;99761.03;340655;29;866;-80
2022/06/02 02:20:40;;;;;;;1.58;1.48;;;;;;;14.76;56.91;99758.34;340355;29;976;-80
2022/06/02 02:21:16;;;;;;;2.53;1.60;;;;;;;14.76;56.61;99753.94;339186;29;1009;-80
2022/06/02 02:21:57;;;;;;;2.20;1.58;;;;;;;14.72;56.50;99762.88;339433;29;1064;-80
2022/06/02 02:22:18;;;;;;;1.90;1.40;;;;;;;14.70;56.55;99764.72;338968;29;1090;-80
2022/06/02 02:22:53;;;;;;;2.80;1.70;;;;;;;14.67;56.68;99759.63;339166;29;1109;-80
2022/06/02 02:23:08;;;;;;;2.70;1.50;;;;;;;14.66;56.70;99757.94;339145;29;1486;-81